Time;durP1;ratioP1;P1;durP2;ratioP2;P2;SDS_P1;SDS_P2;PMS_P1;PMS_P2;Temp;Humidity;BMP_temperature;BMP_pressure;BME280_temperature;BME280_humidity;BME280_pressure;Samples;Min_cycle;Max_cycle;Signal;HPM_P1;HPM_P2
2021/04/24 00:00:59;;;;;;;30.70;12.35;;;;;;;11.29;100.00;102495.22;5012712;28;20125;-63
2021/04/24 00:03:24;;;;;;;30.42;11.07;;;;;;;11.28;100.00;102485.31;5012516;28;20125;-65
2021/04/24 00:05:50;;;;;;;33.08;12.10;;;;;;;11.27;100.00;102489.09;5012644;28;20225;-65
2021/04/24 00:08:16;;;;;;;31.55;12.35;;;;;;;11.26;100.00;102487.41;5012557;28;20038;-66
2021/04/24 00:10:46;;;;;;;28.88;11.50;;;;;;;11.25;100.00;102491.19;5012546;28;20151;-64
2021/04/24 00:13:14;;;;;;;35.63;12.20;;;;;;;11.22;100.00;102486.97;5012244;28;20038;-63
2021/04/24 00:15:41;;;;;;;31.27;12.45;;;;;;;11.21;100.00;102484.47;5012805;28;20041;-67
2021/04/24 00:18:08;;;;;;;39.42;13.02;;;;;;;11.20;100.00;102493.72;5012272;28;20037;-65
2021/04/24 00:20:34;;;;;;;32.38;12.57;;;;;;;11.18;100.00;102480.25;5012067;28;20040;-65
2021/04/24 00:23:00;;;;;;;33.15;13.18;;;;;;;11.17;100.00;102478.56;5012067;28;20463;-64
2021/04/24 00:25:26;;;;;;;28.08;11.77;;;;;;;11.16;100.00;102477.72;5012277;28;20111;-64
2021/04/24 00:27:51;;;;;;;27.60;11.82;;;;;;;11.15;100.00;102484.25;5012168;28;20062;-63
2021/04/24 00:30:18;;;;;;;36.17;11.93;;;;;;;11.13;100.00;102483.59;5012191;28;20116;-63
2021/04/24 00:32:45;;;;;;;33.13;12.43;;;;;;;11.13;100.00;102478.13;5012119;28;20041;-66
2021/04/24 00:35:12;;;;;;;34.15;12.82;;;;;;;11.11;100.00;102480.25;5012287;28;20034;-62
2021/04/24 00:37:37;;;;;;;34.83;12.75;;;;;;;11.10;100.00;102478.53;5012187;28;20034;-63
2021/04/24 00:40:06;;;;;;;28.95;12.57;;;;;;;11.08;100.00;102475.16;5012044;28;20088;-65
2021/04/24 00:42:31;;;;;;;29.13;12.80;;;;;;;11.08;100.00;102466.94;5011927;28;20030;-67
2021/04/24 00:44:57;;;;;;;35.75;14.15;;;;;;;11.07;100.00;102473.47;5012071;28;20491;-64
2021/04/24 00:47:24;;;;;;;28.20;12.40;;;;;;;11.06;100.00;102474.53;5011794;28;20061;-62
2021/04/24 00:49:50;;;;;;;33.80;13.88;;;;;;;11.05;100.00;102469.25;5011867;28;20046;-65
2021/04/24 00:52:17;;;;;;;34.63;13.27;;;;;;;11.03;100.00;102458.53;5011663;28;20054;-63
2021/04/24 00:54:43;;;;;;;30.45;12.45;;;;;;;11.02;100.00;102459.56;5011453;28;20053;-63
2021/04/24 00:57:10;;;;;;;27.08;13.00;;;;;;;11.01;100.00;102468.84;5011620;28;20042;-65
2021/04/24 00:59:40;;;;;;;31.63;13.25;;;;;;;10.98;100.00;102466.50;5011506;28;20029;-64
2021/04/24 01:02:06;;;;;;;35.35;14.63;;;;;;;10.95;100.00;102475.13;5011440;28;20034;-63
2021/04/24 01:04:33;;;;;;;36.58;13.68;;;;;;;10.91;100.00;102473.81;5011421;28;20042;-62
2021/04/24 01:06:59;;;;;;;39.70;14.90;;;;;;;10.90;100.00;102471.31;5011772;28;20038;-67
2021/04/24 01:09:26;;;;;;;31.48;14.45;;;;;;;10.90;100.00;102471.31;5011351;28;20034;-66
2021/04/24 01:11:52;;;;;;;32.65;14.45;;;;;;;10.88;100.00;102475.09;5011455;28;20033;-66
2021/04/24 01:14:17;;;;;;;40.85;13.50;;;;;;;10.85;100.00;102464.56;5011279;28;20519;-65
2021/04/24 01:16:43;;;;;;;39.15;14.68;;;;;;;10.84;100.00;102467.50;5009757;28;20038;-65
2021/04/24 01:19:14;;;;;;;38.85;13.52;;;;;;;10.82;100.00;102464.13;5011272;28;20044;-63
2021/04/24 01:21:41;;;;;;;31.67;13.65;;;;;;;10.81;100.00;102473.38;5011148;28;20056;-62
2021/04/24 01:24:10;;;;;;;36.35;13.77;;;;;;;10.81;100.00;102465.19;5011422;28;20157;-64
2021/04/24 01:26:36;;;;;;;33.95;14.05;;;;;;;10.79;100.00;102459.09;5009749;28;20120;-65
2021/04/24 01:29:05;;;;;;;34.08;13.85;;;;;;;10.79;100.00;102470.03;5011052;28;20392;-64
2021/04/24 01:31:35;;;;;;;36.15;14.02;;;;;;;10.77;100.00;102458.44;5010580;28;20042;-64
2021/04/24 01:34:02;;;;;;;32.85;14.00;;;;;;;10.76;100.00;102459.47;5010933;28;20112;-65
2021/04/24 01:36:28;;;;;;;32.88;14.20;;;;;;;10.75;100.00;102453.16;5010939;28;20061;-64
2021/04/24 01:38:53;;;;;;;36.95;13.93;;;;;;;10.75;100.00;102457.78;5010941;28;20481;-63
2021/04/24 01:41:20;;;;;;;29.38;12.70;;;;;;;10.74;100.00;102450.63;5010949;28;20041;-62
2021/04/24 01:43:53;;;;;;;31.02;14.80;;;;;;;10.73;100.00;102459.88;5010647;28;20085;-63
2021/04/24 01:46:19;;;;;;;31.05;13.98;;;;;;;10.73;100.00;102454.41;5010828;28;20041;-63
2021/04/24 01:48:46;;;;;;;39.75;14.45;;;;;;;10.72;100.00;102452.72;5011024;28;20060;-64
2021/04/24 01:51:11;;;;;;;26.35;13.48;;;;;;;10.71;100.00;102457.34;5010787;28;20049;-65
2021/04/24 01:53:38;;;;;;;33.40;13.75;;;;;;;10.70;100.00;102454.81;5010590;28;20049;-62
2021/04/24 01:56:04;;;;;;;38.10;14.70;;;;;;;10.68;100.00;102457.75;5010558;28;20175;-65
2021/04/24 01:58:30;;;;;;;33.15;14.25;;;;;;;10.68;100.00;102451.47;5010976;28;20432;-66
2021/04/24 02:00:58;;;;;;;40.83;15.10;;;;;;;10.67;100.00;102452.50;5010800;28;20034;-63
2021/04/24 02:03:24;;;;;;;38.47;15.30;;;;;;;10.65;100.00;102462.81;5010565;28;20503;-63
2021/04/24 02:05:50;;;;;;;36.45;13.75;;;;;;;10.62;100.00;102458.59;5010838;28;20041;-65
2021/04/24 02:08:17;;;;;;;29.48;14.05;;;;;;;10.61;100.00;102464.25;5010644;28;20045;-66
2021/04/24 02:10:46;;;;;;;35.15;14.38;;;;;;;10.61;100.00;102458.78;5010535;28;20065;-64
2021/04/24 02:13:17;;;;;;;33.55;13.80;;;;;;;10.58;100.00;102458.13;5010530;28;20432;-63
2021/04/24 02:15:42;;;;;;;34.05;13.90;;;;;;;10.58;100.00;102455.41;5010641;28;20374;-66
2021/04/24 02:18:08;;;;;;;33.72;13.93;;;;;;;10.57;100.00;102450.97;5010561;28;20129;-65
2021/04/24 02:20:37;;;;;;;32.17;14.18;;;;;;;10.57;100.00;102450.13;5010423;28;20412;-63
2021/04/24 02:23:03;;;;;;;38.08;15.02;;;;;;;10.55;100.00;102458.53;5010484;28;20084;-64
2021/04/24 02:25:29;;;;;;;33.88;14.38;;;;;;;10.55;100.00;102447.59;5010297;28;20100;-63
2021/04/24 02:27:55;;;;;;;40.28;14.40;;;;;;;10.54;100.00;102456.84;5010483;28;20505;-66
2021/04/24 02:30:22;;;;;;;35.40;15.20;;;;;;;10.54;100.00;102456.84;5010476;28;20034;-65
2021/04/24 02:32:49;;;;;;;35.95;14.52;;;;;;;10.53;100.00;102443.41;5010309;28;20469;-65
2021/04/24 02:35:24;;;;;;;36.97;14.23;;;;;;;10.51;100.00;102454.53;5010381;28;20052;-66
2021/04/24 02:37:50;;;;;;;36.42;14.18;;;;;;;10.50;100.00;102455.56;5010427;28;20030;-64
2021/04/24 02:40:19;;;;;;;24.27;13.88;;;;;;;10.48;100.00;102457.66;5010662;28;20358;-64
2021/04/24 02:42:45;;;;;;;40.75;16.13;;;;;;;10.50;100.00;102454.75;5012063;28;20037;-66
2021/04/24 02:45:13;;;;;;;38.35;16.65;;;;;;;10.48;100.00;102457.66;5013885;28;20439;-64
2021/04/24 02:47:39;;;;;;;38.80;14.35;;;;;;;10.48;100.00;102445.91;5014044;28;20147;-63
2021/04/24 02:50:08;;;;;;;36.58;14.50;;;;;;;10.46;100.00;102457.03;5013992;28;20046;-65
2021/04/24 02:52:34;;;;;;;35.22;15.57;;;;;;;10.45;100.00;102457.25;5013617;28;20029;-64
2021/04/24 02:55:00;;;;;;;41.83;15.45;;;;;;;10.46;100.00;102453.47;5013828;28;20547;-64
2021/04/24 02:57:25;;;;;;;39.08;16.20;;;;;;;10.46;100.00;102453.47;5013812;28;20496;-62
2021/04/24 02:59:51;;;;;;;34.58;14.82;;;;;;;10.45;100.00;102451.78;5013702;28;20477;-64
2021/04/24 03:02:17;;;;;;;39.47;16.38;;;;;;;10.45;100.00;102454.50;5013632;28;20038;-65
2021/04/24 03:04:43;;;;;;;41.58;15.90;;;;;;;10.43;100.00;102442.94;5013602;28;20036;-64
2021/04/24 03:07:09;;;;;;;34.70;15.55;;;;;;;10.43;100.00;102460.19;5013598;28;20140;-62
2021/04/24 03:09:35;;;;;;;38.10;15.95;;;;;;;10.43;100.00;102464.81;5013806;28;20119;-65
2021/04/24 03:12:01;;;;;;;33.70;16.65;;;;;;;10.41;100.00;102459.53;5013547;28;20046;-64
2021/04/24 03:14:27;;;;;;;45.83;17.83;;;;;;;10.40;100.00;102460.56;5012216;28;20092;-63
2021/04/24 03:16:53;;;;;;;39.42;17.67;;;;;;;10.39;100.00;102458.88;5013582;28;20045;-64
2021/04/24 03:19:18;;;;;;;42.63;16.88;;;;;;;10.36;100.00;102453.81;5013362;28;20048;-66
2021/04/24 03:21:44;;;;;;;37.60;17.85;;;;;;;10.35;100.00;102452.13;5013829;28;20080;-62
2021/04/24 03:24:10;;;;;;;39.10;16.70;;;;;;;10.34;100.00;102447.72;5013164;28;20495;-62
2021/04/24 03:26:35;;;;;;;41.58;17.67;;;;;;;10.34;100.00;102455.06;5013257;28;20042;-62
2021/04/24 03:29:01;;;;;;;43.85;17.02;;;;;;;10.33;100.00;102448.75;5013196;28;20158;-64
2021/04/24 03:31:27;;;;;;;44.50;18.20;;;;;;;10.32;100.00;102447.06;5013387;28;20393;-65
2021/04/24 03:33:53;;;;;;;44.63;18.48;;;;;;;10.30;100.00;102446.44;5013251;28;20038;-65
2021/04/24 03:36:19;;;;;;;41.90;19.08;;;;;;;10.29;100.00;102444.75;5012948;28;20037;-65
2021/04/24 03:38:45;;;;;;;37.28;18.00;;;;;;;10.28;100.00;102451.25;5013068;28;20440;-65
2021/04/24 03:41:12;;;;;;;39.63;18.05;;;;;;;10.26;100.00;102442.44;5028191;28;20061;-63
2021/04/24 03:43:38;;;;;;;45.10;19.33;;;;;;;10.26;100.00;102442.44;5012821;28;20480;-65
2021/04/24 03:46:04;;;;;;;46.10;19.77;;;;;;;10.25;100.00;102435.28;5012861;28;20088;-64
2021/04/24 03:48:30;;;;;;;51.97;20.85;;;;;;;10.23;100.00;102432.72;5012930;28;20038;-65
2021/04/24 03:50:56;;;;;;;44.40;19.95;;;;;;;10.21;100.00;102433.97;5012901;28;20037;-64
2021/04/24 03:53:22;;;;;;;46.22;20.05;;;;;;;10.22;100.00;102430.19;5012111;28;20046;-64
2021/04/24 03:55:48;;;;;;;49.20;22.48;;;;;;;10.22;100.00;102430.19;5012414;28;20092;-66
2021/04/24 03:58:14;;;;;;;44.75;19.85;;;;;;;10.19;100.00;102430.56;5012700;28;20041;-63
2021/04/24 04:00:39;;;;;;;55.17;21.25;;;;;;;10.18;100.00;102428.88;5012664;28;20034;-65
2021/04/24 04:03:07;;;;;;;45.60;21.70;;;;;;;10.15;100.00;102430.13;5012478;28;20037;-66
2021/04/24 04:05:38;;;;;;;46.83;21.55;;;;;;;10.14;100.00;102433.91;5012434;28;20053;-64
2021/04/24 04:08:06;;;;;;;51.20;21.58;;;;;;;10.13;100.00;102431.38;5012589;28;20061;-66
2021/04/24 04:10:33;;;;;;;52.72;23.17;;;;;;;10.11;100.00;102428.84;5012523;28;20038;-64
2021/04/24 04:13:00;;;;;;;54.08;25.42;;;;;;;10.09;100.00;102430.09;5012318;28;20447;-65
2021/04/24 04:15:27;;;;;;;56.72;25.05;;;;;;;10.09;100.00;102435.56;5012383;28;20504;-62
2021/04/24 04:17:55;;;;;;;56.33;23.30;;;;;;;10.09;100.00;102435.56;5012284;28;20087;-67
2021/04/24 04:20:21;;;;;;;53.83;25.60;;;;;;;10.08;100.00;102434.72;5012322;28;20112;-64
2021/04/24 04:22:47;;;;;;;54.10;26.45;;;;;;;10.08;100.00;102436.59;5012042;28;20443;-63
2021/04/24 04:25:13;;;;;;;57.83;25.73;;;;;;;10.07;100.00;102433.03;5012118;28;20033;-62
2021/04/24 04:27:39;;;;;;;67.63;26.38;;;;;;;10.06;100.00;102425.84;5012456;28;20034;-64
2021/04/24 04:30:08;;;;;;;53.40;26.02;;;;;;;10.07;100.00;102432.19;5012068;28;20087;-64
2021/04/24 04:32:33;;;;;;;55.80;26.65;;;;;;;10.05;100.00;102426.06;5011898;28;20030;-64
2021/04/24 04:34:59;;;;;;;56.97;28.42;;;;;;;10.05;100.00;102423.34;5011857;28;20068;-61
2021/04/24 04:37:25;;;;;;;52.35;26.92;;;;;;;10.05;100.00;102428.78;5011979;28;20038;-62
2021/04/24 04:39:51;;;;;;;56.72;28.10;;;;;;;10.05;100.00;102420.59;5011878;28;20049;-65
2021/04/24 04:42:17;;;;;;;66.93;29.48;;;;;;;10.05;100.00;102428.78;5011869;28;20037;-64
2021/04/24 04:44:42;;;;;;;57.28;26.75;;;;;;;10.04;100.00;102427.94;5011801;28;20037;-63
2021/04/24 04:47:08;;;;;;;59.65;27.67;;;;;;;10.04;100.00;102416.19;5011716;28;20041;-66
2021/04/24 04:49:34;;;;;;;61.15;28.70;;;;;;;10.03;100.00;102417.22;5011908;28;20048;-63
2021/04/24 04:51:59;;;;;;;60.45;26.65;;;;;;;10.01;100.00;102411.13;5011752;28;20042;-66
2021/04/24 04:54:25;;;;;;;55.13;25.33;;;;;;;10.00;100.00;102409.44;5011484;28;20133;-65
2021/04/24 04:56:50;;;;;;;50.60;24.25;;;;;;;9.97;100.00;102411.53;5011581;28;20128;-63
2021/04/24 04:59:16;;;;;;;58.85;25.13;;;;;;;9.97;100.00;102406.06;5011600;28;20042;-63
2021/04/24 05:01:42;;;;;;;51.67;23.38;;;;;;;9.95;100.00;102397.25;5011630;28;20052;-67
2021/04/24 05:04:08;;;;;;;54.25;24.20;;;;;;;9.95;100.00;102408.16;5009963;28;20050;-65
2021/04/24 05:06:33;;;;;;;55.97;22.67;;;;;;;9.96;100.00;102409.00;5010743;28;20038;-62
2021/04/24 05:08:59;;;;;;;58.35;22.67;;;;;;;9.94;100.00;102414.66;5011513;28;20049;-63
2021/04/24 05:11:25;;;;;;;52.40;22.88;;;;;;;9.96;100.00;102426.22;5011469;28;20125;-66
2021/04/24 05:13:50;;;;;;;47.53;20.48;;;;;;;9.96;100.00;102412.59;5011390;28;20033;-64
2021/04/24 05:16:16;;;;;;;49.10;22.15;;;;;;;9.96;100.00;102414.47;5011305;28;20097;-66
2021/04/24 05:18:41;;;;;;;46.17;19.98;;;;;;;9.98;100.00;102424.16;5011508;28;20037;-62
2021/04/24 05:21:07;;;;;;;46.58;19.92;;;;;;;9.98;100.00;102432.34;5011319;28;20042;-65
2021/04/24 05:23:32;;;;;;;45.72;19.55;;;;;;;9.97;100.00;102427.91;5011434;28;20112;-64
2021/04/24 05:25:58;;;;;;;51.38;19.60;;;;;;;9.97;100.00;102425.19;5011392;28;20042;-64
2021/04/24 05:28:24;;;;;;;53.03;20.92;;;;;;;9.98;100.00;102435.06;5009903;28;20048;-65
2021/04/24 05:30:50;;;;;;;50.58;19.65;;;;;;;10.01;100.00;102444.72;5011216;28;20052;-61
2021/04/24 05:33:16;;;;;;;47.08;18.90;;;;;;;10.03;100.00;102441.81;5010960;28;20448;-66
2021/04/24 05:35:42;;;;;;;42.78;18.75;;;;;;;10.04;100.00;102451.69;5011306;28;20108;-63
2021/04/24 05:38:08;;;;;;;48.08;19.02;;;;;;;10.03;100.00;102442.66;5011081;28;20374;-63
2021/04/24 05:40:34;;;;;;;45.15;18.05;;;;;;;10.06;100.00;102444.13;5010857;28;20038;-64
2021/04/24 05:42:59;;;;;;;45.53;18.65;;;;;;;10.06;100.00;102435.94;5010871;28;20073;-64
2021/04/24 05:45:25;;;;;;;55.70;19.15;;;;;;;10.07;100.00;102448.56;5010910;28;20033;-64
2021/04/24 05:47:52;;;;;;;47.45;20.67;;;;;;;10.08;100.00;102448.38;5010834;28;20038;-65
2021/04/24 05:50:21;;;;;;;52.00;18.30;;;;;;;10.10;100.00;102453.63;5010840;28;20062;-63
2021/04/24 05:52:46;;;;;;;56.05;21.10;;;;;;;10.10;100.00;102450.91;5010633;28;20042;-65
2021/04/24 05:55:16;;;;;;;50.00;19.02;;;;;;;10.11;100.00;102449.84;5010853;28;20037;-64
2021/04/24 05:57:43;;;;;;;38.28;17.83;;;;;;;10.13;100.00;102442.31;5010784;28;20084;-64
2021/04/24 06:00:15;;;;;;;45.00;17.73;;;;;;;10.14;100.00;102460.38;5010904;28;20389;-66
2021/04/24 06:02:41;;;;;;;46.38;17.90;;;;;;;10.15;100.00;102462.91;5010711;28;20037;-63
2021/04/24 06:05:09;;;;;;;43.42;17.60;;;;;;;10.18;100.00;102456.19;5010635;28;20096;-62
2021/04/24 06:07:36;;;;;;;44.00;17.80;;;;;;;10.20;100.00;102465.03;5010775;28;20073;-64
2021/04/24 06:10:08;;;;;;;43.97;17.02;;;;;;;10.23;100.00;102475.56;5010682;28;20041;-63
2021/04/24 06:12:34;;;;;;;41.58;16.33;;;;;;;10.26;100.00;102475.19;5010680;28;20038;-62
2021/04/24 06:14:59;;;;;;;49.95;17.30;;;;;;;10.28;100.00;102478.56;5010600;28;20079;-63
2021/04/24 06:17:25;;;;;;;48.70;16.63;;;;;;;10.32;100.00;102477.13;5012333;28;20091;-63
2021/04/24 06:19:51;;;;;;;41.50;15.90;;;;;;;10.34;100.00;102477.75;5014858;28;20049;-65
2021/04/24 06:22:18;;;;;;;44.15;14.85;;;;;;;10.38;100.00;102478.19;5014589;28;20041;-64
2021/04/24 06:24:44;;;;;;;48.17;15.52;;;;;;;10.41;100.00;102481.41;5014443;28;20572;-66
2021/04/24 06:27:09;;;;;;;42.05;14.50;;;;;;;10.46;100.00;102486.25;5014457;28;20120;-64
2021/04/24 06:29:35;;;;;;;40.33;13.63;;;;;;;10.48;100.00;102484.16;5014534;28;20038;-62
2021/04/24 06:32:01;;;;;;;42.95;14.18;;;;;;;10.50;100.00;102477.44;5014653;28;20380;-65
2021/04/24 06:34:26;;;;;;;44.92;13.32;;;;;;;10.51;100.00;102484.59;5014393;28;20065;-63
2021/04/24 06:36:52;;;;;;;42.50;12.77;;;;;;;10.54;100.00;102477.88;5014443;28;20042;-65
2021/04/24 06:39:18;;;;;;;35.30;12.10;;;;;;;10.54;100.00;102489.63;5014741;28;20484;-65
2021/04/24 06:41:43;;;;;;;45.50;13.00;;;;;;;10.56;100.00;102479.34;5014137;28;20404;-65
2021/04/24 06:44:09;;;;;;;38.25;12.75;;;;;;;10.58;100.00;102471.78;5014088;28;20042;-64
2021/04/24 06:46:35;;;;;;;43.15;12.27;;;;;;;10.57;100.00;102472.84;5014112;28;20045;-62
2021/04/24 06:49:00;;;;;;;34.80;12.18;;;;;;;10.58;100.00;102479.97;5012758;28;20111;-64
2021/04/24 06:51:26;;;;;;;37.88;11.95;;;;;;;10.58;100.00;102479.97;5013949;28;20052;-65
2021/04/24 06:53:52;;;;;;;32.03;11.32;;;;;;;10.61;100.00;102494.31;5013772;28;20049;-64
2021/04/24 06:56:19;;;;;;;34.92;11.25;;;;;;;10.60;100.00;102490.75;5013796;28;20112;-66
2021/04/24 06:58:45;;;;;;;33.25;12.07;;;;;;;10.62;100.00;102491.38;5013924;28;20038;-64
2021/04/24 07:01:10;;;;;;;33.22;11.98;;;;;;;10.67;100.00;102498.97;5013857;28;20471;-65
2021/04/24 07:03:37;;;;;;;40.17;11.70;;;;;;;10.69;100.00;102491.41;5013680;28;20065;-65
2021/04/24 07:06:06;;;;;;;32.42;11.25;;;;;;;10.73;100.00;102492.69;5013768;28;20072;-66
2021/04/24 07:08:32;;;;;;;37.80;10.75;;;;;;;10.76;100.00;102486.78;5012265;28;20042;-63
2021/04/24 07:10:58;;;;;;;35.25;11.43;;;;;;;10.82;100.00;102486.00;5013671;28;20064;-64
2021/04/24 07:13:23;;;;;;;30.15;10.32;;;;;;;10.87;100.00;102489.81;5013532;28;20125;-65
2021/04/24 07:15:49;;;;;;;30.90;10.30;;;;;;;10.91;100.00;102478.47;5013541;28;20042;-67
2021/04/24 07:18:15;;;;;;;30.65;9.57;;;;;;;10.96;100.00;102481.44;5013515;28;20073;-65
2021/04/24 07:20:41;;;;;;;33.13;11.07;;;;;;;11.06;100.00;102477.25;5013649;28;20042;-66
2021/04/24 07:23:08;;;;;;;30.13;9.77;;;;;;;11.15;100.00;102481.50;5013579;28;20099;-65
2021/04/24 07:25:34;;;;;;;38.85;10.48;;;;;;;11.26;100.00;102481.94;5013502;28;20042;-66
2021/04/24 07:27:59;;;;;;;34.10;10.82;;;;;;;11.35;100.00;102484.28;5013297;28;20392;-66
2021/04/24 07:30:25;;;;;;;36.33;10.55;;;;;;;11.43;100.00;102472.28;5013114;28;20041;-67
2021/04/24 07:32:51;;;;;;;27.63;9.60;;;;;;;11.55;100.00;102476.09;5013366;28;20033;-66
2021/04/24 07:35:17;;;;;;;31.77;9.25;;;;;;;11.64;100.00;102480.34;5013373;28;20042;-66
2021/04/24 07:37:43;;;;;;;31.77;10.25;;;;;;;11.73;100.00;102479.06;5013304;28;20485;-64
2021/04/24 07:40:10;;;;;;;25.80;9.43;;;;;;;11.81;100.00;102480.81;5013378;28;20069;-65
2021/04/24 07:42:36;;;;;;;32.90;9.73;;;;;;;11.90;100.00;102481.41;5013088;28;20125;-66
2021/04/24 07:45:04;;;;;;;37.22;9.93;;;;;;;12.01;100.00;102472.59;5013247;28;20125;-66
2021/04/24 07:47:29;;;;;;;29.83;8.98;;;;;;;12.08;100.00;102476.16;5013501;28;20088;-65
2021/04/24 07:49:55;;;;;;;27.73;8.50;;;;;;;12.14;100.00;102479.91;5013293;28;20034;-64
2021/04/24 07:52:21;;;;;;;25.48;8.55;;;;;;;12.19;100.00;102467.28;5012892;28;20065;-64
2021/04/24 07:54:48;;;;;;;23.65;8.38;;;;;;;12.29;100.00;102473.16;5012912;28;20042;-65
2021/04/24 07:57:16;;;;;;;24.08;7.95;;;;;;;12.40;100.00;102473.56;5013038;28;20227;-65
2021/04/24 07:59:42;;;;;;;37.63;9.15;;;;;;;12.48;100.00;102476.06;5012941;28;20045;-63
2021/04/24 08:02:12;;;;;;;18.42;7.07;;;;;;;12.56;100.00;102462.13;5012979;28;20113;-64
2021/04/24 08:04:37;;;;;;;18.48;8.50;;;;;;;12.61;100.00;102456.84;5012904;28;20131;-66
2021/04/24 08:07:03;;;;;;;22.38;8.52;;;;;;;12.71;100.00;102468.22;5027979;28;20145;-63
2021/04/24 08:09:29;;;;;;;23.77;9.48;;;;;;;12.73;100.00;102457.84;5012715;28;20030;-65
2021/04/24 08:11:55;;;;;;;22.80;8.30;;;;;;;12.79;100.00;102456.97;5012789;28;20057;-64
2021/04/24 08:14:20;;;;;;;18.55;7.75;;;;;;;12.88;100.00;102460.34;5012607;28;20034;-63
2021/04/24 08:16:46;;;;;;;28.25;8.52;;;;;;;12.90;100.00;102434.38;5012667;28;20053;-66
2021/04/24 08:19:12;;;;;;;24.45;8.15;;;;;;;12.94;100.00;102432.03;5012702;28;20033;-66
2021/04/24 08:21:39;;;;;;;24.85;7.88;;;;;;;12.99;100.00;102435.78;5012651;28;20061;-65
2021/04/24 08:24:05;;;;;;;27.52;8.75;;;;;;;13.02;100.00;102434.53;5012421;28;20488;-62
2021/04/24 08:26:31;;;;;;;24.63;8.73;;;;;;;13.07;100.00;102425.63;5012594;28;20485;-66
2021/04/24 08:28:57;;;;;;;19.38;9.05;;;;;;;13.10;100.00;102436.16;5012482;28;20041;-65
2021/04/24 08:31:23;;;;;;;26.98;8.40;;;;;;;13.15;100.00;102412.47;5012353;28;20030;-65
2021/04/24 08:33:49;;;;;;;22.52;8.30;;;;;;;13.14;100.00;102421.78;5012359;28;20030;-62
2021/04/24 08:36:16;;;;;;;23.58;8.07;;;;;;;13.18;100.00;102422.19;5012166;28;20046;-64
2021/04/24 08:38:43;;;;;;;26.13;8.63;;;;;;;13.23;100.00;102416.91;5027373;28;20049;-63
2021/04/24 08:41:08;;;;;;;30.27;9.10;;;;;;;13.28;100.00;102411.59;5012142;28;20038;-63
2021/04/24 08:43:38;;;;;;;25.95;9.35;;;;;;;13.32;100.00;102412.81;5012258;28;20488;-65
2021/04/24 08:46:06;;;;;;;22.10;7.53;;;;;;;13.37;100.00;102413.00;5012110;28;20061;-66
2021/04/24 08:48:36;;;;;;;22.35;9.13;;;;;;;13.39;100.00;102424.59;5012084;28;20458;-65
2021/04/24 08:51:02;;;;;;;23.92;8.55;;;;;;;13.48;100.00;102417.75;5012064;28;20037;-66
2021/04/24 08:53:28;;;;;;;27.73;9.93;;;;;;;13.55;100.00;102421.31;5011870;28;20193;-61
2021/04/24 08:55:53;;;;;;;24.33;9.35;;;;;;;13.58;100.00;102426.34;5011984;28;20475;-65
2021/04/24 08:58:20;;;;;;;24.88;8.82;;;;;;;13.65;100.00;102422.69;5011998;28;20116;-62
2021/04/24 09:00:48;;;;;;;21.40;9.02;;;;;;;13.73;100.00;102436.16;5011833;28;20081;-66
2021/04/24 09:03:21;;;;;;;25.95;10.02;;;;;;;13.75;100.00;102445.03;5011660;28;20034;-66
2021/04/24 09:05:52;;;;;;;24.98;10.00;;;;;;;13.84;100.00;102438.16;5011784;28;20034;-63
2021/04/24 09:08:23;;;;;;;29.13;10.13;;;;;;;13.90;100.00;102436.44;5011723;28;20042;-65
2021/04/24 09:10:50;;;;;;;24.75;9.27;;;;;;;14.00;100.00;102437.59;5011772;28;20037;-64
2021/04/24 09:13:21;;;;;;;26.02;9.68;;;;;;;14.02;100.00;102418.13;5011543;28;20057;-66
2021/04/24 09:15:47;;;;;;;24.25;10.05;;;;;;;14.09;100.00;102441.75;5011721;28;20037;-65
2021/04/24 09:18:13;;;;;;;28.17;10.73;;;;;;;14.21;100.00;102449.22;5011525;28;20048;-65
2021/04/24 09:20:48;;;;;;;28.58;10.25;;;;;;;14.34;100.00;102432.59;5011490;28;20037;-62
2021/04/24 09:23:17;;;;;;;25.83;10.30;;;;;;;14.41;99.84;102441.63;5011372;28;20092;-62
2021/04/24 09:25:47;;;;;;;28.38;10.52;;;;;;;14.45;100.00;102460.22;5011407;28;20038;-64
2021/04/24 09:28:31;;;;;;;27.38;10.82;;;;;;;14.60;100.00;102448.84;5011459;28;20049;-65
2021/04/24 09:31:18;;;;;;;28.60;10.65;;;;;;;14.69;95.25;102450.19;5011429;28;20033;-66
2021/04/24 09:33:45;;;;;;;27.77;11.55;;;;;;;14.80;97.99;102453.25;5011467;28;20045;-63
2021/04/24 09:36:12;;;;;;;28.02;11.45;;;;;;;14.83;93.25;102452.78;5011183;28;20404;-64
2021/04/24 09:38:42;;;;;;;30.30;11.27;;;;;;;14.80;89.90;102448.59;5011295;28;20397;-65
2021/04/24 09:41:27;;;;;;;24.00;11.32;;;;;;;14.81;90.35;102454.94;5011245;28;20415;-65
2021/04/24 09:44:13;;;;;;;;;;;;;;;14.86;91.36;102463.31;5011622;28;20130;-65
2021/04/24 09:46:44;;;;;;;32.15;11.32;;;;;;;14.90;92.97;102464.53;5011103;28;20414;-65
2021/04/24 09:49:28;;;;;;;34.05;11.50;;;;;;;15.03;93.62;102465.19;5011163;28;20469;-63
2021/04/24 09:52:00;;;;;;;29.33;11.13;;;;;;;15.07;89.26;102454.56;5010616;28;20060;-64
2021/04/24 09:54:44;;;;;;;29.50;11.80;;;;;;;15.07;89.11;102465.56;5008525;28;20053;-65
2021/04/24 09:57:22;;;;;;;27.02;11.75;;;;;;;15.04;91.23;102460.53;5011288;28;20488;-66
2021/04/24 09:59:59;;;;;;;29.52;12.57;;;;;;;15.09;89.49;102466.16;5010957;28;20556;-67
2021/04/24 10:02:35;;;;;;;25.52;11.68;;;;;;;15.18;92.57;102462.03;5010987;28;20514;-64
2021/04/24 10:05:13;;;;;;;33.92;12.50;;;;;;;15.12;87.38;102468.47;5010884;28;20084;-63
2021/04/24 10:07:41;;;;;;;28.27;12.63;;;;;;;15.11;86.57;102472.31;5011005;28;20099;-66
2021/04/24 10:10:09;;;;;;;25.52;12.70;;;;;;;15.03;86.10;102478.13;5011463;28;20047;-64
2021/04/24 10:12:35;;;;;;;25.95;11.70;;;;;;;15.18;85.98;102472.22;5011018;28;20041;-65
2021/04/24 10:15:01;;;;;;;30.02;12.43;;;;;;;15.20;85.47;102484.66;5010847;28;20172;-65
2021/04/24 10:17:27;;;;;;;33.97;13.43;;;;;;;15.36;85.29;102474.91;5010747;28;20500;-63
2021/04/24 10:19:53;;;;;;;32.25;13.25;;;;;;;15.46;81.81;102485.38;5011155;28;20076;-63
2021/04/24 10:22:24;;;;;;;27.70;12.70;;;;;;;15.46;76.24;102493.63;5010717;28;20042;-66
2021/04/24 10:24:51;;;;;;;32.72;12.82;;;;;;;15.42;79.52;102495.97;5010604;28;20092;-62
2021/04/24 10:27:19;;;;;;;26.02;12.50;;;;;;;15.42;79.79;102500.66;5010787;28;20061;-65
2021/04/24 10:29:46;;;;;;;31.67;13.60;;;;;;;15.48;81.70;102499.75;5010680;28;20080;-66
2021/04/24 10:32:13;;;;;;;27.05;12.40;;;;;;;15.55;82.29;102500.47;5010723;28;20045;-64
2021/04/24 10:34:39;;;;;;;31.77;14.15;;;;;;;15.65;80.99;102512.63;5010585;28;20029;-64
2021/04/24 10:37:05;;;;;;;31.17;13.55;;;;;;;15.84;82.58;102515.31;5010664;28;20041;-64
2021/04/24 10:39:34;;;;;;;29.95;13.23;;;;;;;16.06;79.21;102518.34;5010516;28;20108;-64
2021/04/24 10:42:21;;;;;;;25.65;13.00;;;;;;;16.13;73.41;102524.56;5010502;28;20392;-63
2021/04/24 10:44:56;;;;;;;33.72;13.65;;;;;;;16.18;68.84;102521.97;5010297;28;20042;-67
2021/04/24 10:47:41;;;;;;;;;;;;;;;16.16;66.57;102519.44;5011002;28;20041;-65
2021/04/24 10:50:17;;;;;;;27.27;13.00;;;;;;;16.04;67.60;102521.34;5010747;28;20272;-67
2021/04/24 10:52:45;;;;;;;22.02;11.80;;;;;;;15.96;68.24;102539.03;5010363;28;20481;-63
2021/04/24 10:55:16;;;;;;;29.65;13.77;;;;;;;15.96;69.40;102517.00;5010485;28;20108;-63
2021/04/24 10:57:51;;;;;;;23.23;12.68;;;;;;;16.11;69.62;102511.03;5010900;28;20060;-63
2021/04/24 11:00:36;;;;;;;27.70;13.60;;;;;;;16.19;66.63;102512.59;5010471;28;20034;-65
2021/04/24 11:03:02;;;;;;;29.75;13.15;;;;;;;16.23;70.33;102538.59;5017158;28;20041;-63
2021/04/24 11:05:29;;;;;;;28.27;13.95;;;;;;;16.18;68.17;102521.97;5014236;28;20060;-64